Marcelandia, Brazil
Current Conditions -  °F | °C
As of 3:00 PM on Tuesday 21 Oct 2014 (Local Time) from SBAT Reporting Station
Light Rain Light Rain  
Wind Chill: 90°   Ceiling: Unl
Heat Index: 96°   Visibility: 6mi
Dew Point: 72°   Wind: 5mph
Humidity: 55%   Direction: 360°N
Pressure: 29.83"   Gusts: NA
Location:  11.09°S, 54.45°W
Report Text: SBAT 211800Z 36004KT 9999 -RA SCT030 FEW035TCU 32/22 Q1010
Loading
Personal Weather Stations






























Interactive Weather Map
Tropical Storm Tracking
New forecast layout! Learn more

10-Day Weather Forecast

Advertisements
Track Severe Weather on mobile